createdAt,value
2022-10-03T00:01:11.074Z,10.80
2022-10-03T00:07:31.440Z,10.80
2022-10-03T00:13:39.309Z,10.70
2022-10-03T00:19:50.082Z,10.70
2022-10-03T00:25:51.664Z,10.70
2022-10-03T00:32:02.143Z,10.60
2022-10-03T00:38:06.876Z,10.70
2022-10-03T00:44:27.180Z,10.50
2022-10-03T00:50:49.020Z,10.60
2022-10-03T00:56:53.529Z,10.50
2022-10-03T01:02:55.631Z,10.60
2022-10-03T01:09:04.182Z,10.60
2022-10-03T01:15:12.939Z,10.50
2022-10-03T01:21:14.690Z,10.50
2022-10-03T01:27:26.137Z,10.50
2022-10-03T01:33:27.801Z,10.40
2022-10-03T01:39:37.300Z,10.40
2022-10-03T01:45:59.464Z,10.40
2022-10-03T01:52:01.172Z,10.30
2022-10-03T01:58:23.808Z,10.30
2022-10-03T02:04:44.140Z,10.20
2022-10-03T02:11:02.973Z,10.30
2022-10-03T02:17:09.716Z,10.30
2022-10-03T02:23:30.740Z,10.20
2022-10-03T02:29:51.178Z,10.10
2022-10-03T02:36:03.058Z,10.10
2022-10-03T02:42:25.213Z,10.10
2022-10-03T02:48:32.147Z,10.10
2022-10-03T02:54:46.436Z,10.10
2022-10-03T03:01:06.725Z,10.00
2022-10-03T03:07:23.516Z,10.00
2022-10-03T03:13:35.606Z,10.00
2022-10-03T03:19:56.114Z,10.00
2022-10-03T03:26:15.011Z,10.00
2022-10-03T03:32:35.152Z,10.00
2022-10-03T03:38:48.969Z,9.90
2022-10-03T03:45:09.689Z,10.00
2022-10-03T03:51:22.003Z,9.90
2022-10-03T03:57:26.707Z,9.80
2022-10-03T04:03:31.165Z,9.80
2022-10-03T04:09:45.067Z,9.80
2022-10-03T04:15:52.783Z,9.90
2022-10-03T04:22:09.486Z,9.80
2022-10-03T04:28:26.736Z,9.80
2022-10-03T04:34:28.506Z,9.80
2022-10-03T04:40:43.859Z,9.80
2022-10-03T04:46:53.043Z,9.90
2022-10-03T04:53:05.142Z,9.80
2022-10-03T04:59:19.760Z,9.70
2022-10-03T05:05:25.474Z,9.70
2022-10-03T05:11:36.409Z,9.70
2022-10-03T05:17:58.656Z,9.80
2022-10-03T05:24:20.606Z,9.80
2022-10-03T05:30:40.803Z,9.80
2022-10-03T05:36:42.375Z,9.80
2022-10-03T05:42:46.824Z,9.90
2022-10-03T05:49:07.073Z,9.90
2022-10-03T05:55:18.637Z,9.90
2022-10-03T06:01:49.410Z,10.00
2022-10-03T06:08:03.336Z,10.00
2022-10-03T06:14:38.654Z,10.10
2022-10-03T06:20:58.814Z,10.10
2022-10-03T06:27:19.380Z,10.20
2022-10-03T06:33:29.875Z,10.20
2022-10-03T06:39:54.121Z,10.20
2022-10-03T06:46:12.188Z,10.20
2022-10-03T06:52:32.557Z,10.20
2022-10-03T06:58:53.011Z,10.20
2022-10-03T07:04:57.596Z,10.30
2022-10-03T07:10:59.209Z,10.40
2022-10-03T07:17:20.223Z,10.40
2022-10-03T07:23:41.293Z,10.50
2022-10-03T07:29:58.969Z,10.50
2022-10-03T07:36:31.562Z,10.70
2022-10-03T07:42:36.709Z,10.80
2022-10-03T07:48:50.498Z,10.80
2022-10-03T07:55:10.845Z,10.90
2022-10-03T08:01:31.108Z,11.00
2022-10-03T08:07:35.744Z,11.10
2022-10-03T08:14:00.643Z,11.10
2022-10-03T08:20:17.261Z,11.20
2022-10-03T08:26:18.953Z,11.40
2022-10-03T08:32:29.527Z,11.50
2022-10-03T08:38:37.204Z,11.60
2022-10-03T08:44:45.003Z,11.80
2022-10-03T08:50:46.607Z,12.00
2022-10-03T08:57:08.361Z,12.20
2022-10-03T09:03:36.641Z,12.30
2022-10-03T09:09:43.624Z,12.50
2022-10-03T09:16:08.450Z,12.60
2022-10-03T09:22:49.448Z,12.60
2022-10-03T09:29:20.180Z,12.80
2022-10-03T09:35:33.967Z,12.90
2022-10-03T09:42:07.771Z,13.20
2022-10-03T09:48:27.076Z,13.20
2022-10-03T09:54:35.563Z,13.20
2022-10-03T10:00:55.696Z,13.30
2022-10-03T10:07:16.207Z,13.30
2022-10-03T10:13:18.251Z,13.40
2022-10-03T10:19:25.908Z,13.50
2022-10-03T10:25:46.233Z,13.40
2022-10-03T10:31:52.402Z,13.40
2022-10-03T10:38:04.260Z,13.90
2022-10-03T10:44:24.656Z,14.50
2022-10-03T10:50:45.005Z,14.70
2022-10-03T10:57:09.717Z,14.70
2022-10-03T11:03:30.122Z,14.70
2022-10-03T11:09:50.593Z,14.90
2022-10-03T11:16:01.360Z,14.70
2022-10-03T11:22:19.120Z,14.90
2022-10-03T11:28:38.793Z,14.90
2022-10-03T11:34:59.225Z,14.50
2022-10-03T11:41:19.494Z,14.30
2022-10-03T11:47:32.755Z,14.90
2022-10-03T11:54:03.625Z,15.40
2022-10-03T12:00:21.706Z,15.40
2022-10-03T12:06:51.795Z,15.80
2022-10-03T12:12:54.419Z,16.30
2022-10-03T12:19:01.978Z,16.40
2022-10-03T12:25:15.356Z,16.60
2022-10-03T12:31:24.212Z,16.50
2022-10-03T12:37:34.223Z,16.40
2022-10-03T12:43:55.389Z,15.90
2022-10-03T12:50:14.115Z,15.80
2022-10-03T12:56:19.398Z,15.70
2022-10-03T13:02:35.648Z,15.50
2022-10-03T13:08:55.702Z,15.30
2022-10-03T13:15:16.258Z,15.10
2022-10-03T13:21:43.828Z,15.10
2022-10-03T13:27:39.472Z,15.00
2022-10-03T13:33:43.957Z,15.00
2022-10-03T13:39:48.448Z,14.90
2022-10-03T13:45:51.362Z,14.90
2022-10-03T13:51:59.375Z,14.80
2022-10-03T13:58:10.075Z,14.90
2022-10-03T14:04:31.133Z,15.10
2022-10-03T14:10:55.485Z,15.30
2022-10-03T14:17:15.920Z,15.20
2022-10-03T14:23:23.266Z,15.20
2022-10-03T14:29:34.029Z,15.40
2022-10-03T14:35:41.579Z,15.50
2022-10-03T14:42:06.256Z,15.40
2022-10-03T14:48:13.147Z,15.20
2022-10-03T14:54:14.718Z,15.20
2022-10-03T15:00:27.483Z,15.20
2022-10-03T15:06:35.348Z,15.20
2022-10-03T15:12:39.226Z,15.00
2022-10-03T15:18:44.991Z,14.90
2022-10-03T15:24:47.081Z,14.90
2022-10-03T15:30:50.769Z,14.80
2022-10-03T15:36:56.112Z,14.60
2022-10-03T15:43:08.068Z,14.50
2022-10-03T15:49:17.774Z,14.40
2022-10-03T15:55:20.531Z,14.40
2022-10-03T16:01:29.863Z,14.30
2022-10-03T16:07:43.841Z,14.10
2022-10-03T16:13:49.037Z,14.10
2022-10-03T16:20:00.309Z,14.00
2022-10-03T16:26:12.862Z,14.00
2022-10-03T16:32:17.596Z,13.90
2022-10-03T16:38:45.539Z,13.80
2022-10-03T16:44:47.102Z,13.70
2022-10-03T16:50:52.018Z,13.60
2022-10-03T16:57:00.964Z,13.50
2022-10-03T17:03:04.284Z,13.30
2022-10-03T17:09:19.554Z,13.40
2022-10-03T17:15:22.753Z,13.20
2022-10-03T17:21:28.964Z,13.10
2022-10-03T17:27:40.661Z,13.00
2022-10-03T17:33:45.238Z,13.00
2022-10-03T17:39:58.670Z,13.00
2022-10-03T17:46:18.915Z,12.90
2022-10-03T17:52:23.492Z,12.80
2022-10-03T17:58:27.282Z,12.70
2022-10-03T18:04:39.667Z,12.60
2022-10-03T18:10:46.328Z,12.60
2022-10-03T18:16:59.188Z,12.40
2022-10-03T18:23:04.018Z,12.40
2022-10-03T18:29:25.233Z,12.40
2022-10-03T18:35:29.205Z,12.30
2022-10-03T18:41:30.976Z,12.30
2022-10-03T18:47:38.063Z,12.20
2022-10-03T18:53:44.728Z,12.20
2022-10-03T18:59:58.310Z,12.20
2022-10-03T19:06:04.121Z,12.20
2022-10-03T19:12:10.766Z,12.10
2022-10-03T19:18:15.152Z,12.00
2022-10-03T19:24:34.468Z,12.00
2022-10-03T19:30:43.228Z,12.00
2022-10-03T19:36:46.827Z,11.90
2022-10-03T19:42:51.562Z,11.90
2022-10-03T19:49:09.568Z,11.80
2022-10-03T19:55:17.152Z,11.80
2022-10-03T20:01:19.718Z,11.80
2022-10-03T20:07:36.413Z,11.70
2022-10-03T20:13:47.234Z,11.80
2022-10-03T20:19:54.410Z,11.80
2022-10-03T20:26:00.152Z,11.70
2022-10-03T20:32:02.893Z,11.70
2022-10-03T20:38:20.027Z,11.60
2022-10-03T20:44:41.412Z,11.60
2022-10-03T20:50:46.957Z,11.60
2022-10-03T20:56:56.983Z,11.60
2022-10-03T21:03:01.302Z,11.60
2022-10-03T21:09:05.445Z,11.60
2022-10-03T21:15:11.321Z,11.60
2022-10-03T21:21:20.056Z,11.60
2022-10-03T21:27:22.663Z,12.00
2022-10-03T21:33:30.593Z,11.80
2022-10-03T21:39:38.229Z,11.60
2022-10-03T21:45:39.898Z,11.50
2022-10-03T21:51:48.127Z,11.60
2022-10-03T21:57:52.807Z,11.60
2022-10-03T22:04:15.322Z,11.60
2022-10-03T22:10:22.004Z,11.40
2022-10-03T22:16:43.933Z,11.40
2022-10-03T22:23:04.311Z,11.30
2022-10-03T22:29:22.712Z,11.30
2022-10-03T22:35:43.635Z,11.20
2022-10-03T22:41:53.399Z,11.20
2022-10-03T22:47:56.235Z,11.10
2022-10-03T22:53:59.969Z,10.80
2022-10-03T23:00:27.822Z,10.70
2022-10-03T23:06:48.225Z,10.70
2022-10-03T23:13:00.569Z,10.70
2022-10-03T23:19:14.554Z,11.00
2022-10-03T23:25:18.706Z,11.00
2022-10-03T23:31:39.159Z,10.70
2022-10-03T23:37:41.531Z,10.80
2022-10-03T23:43:49.011Z,11.00
2022-10-03T23:49:51.264Z,11.00
2022-10-03T23:55:52.919Z,10.90
